sensor_id;sensor_type;location;lat;lon;timestamp;P1;durP1;ratioP1;P2;durP2;ratioP2
53927;SDS011;39837;47.630;18.822;2022-10-17T00:01:48;6.97;;;5.28;;
53927;SDS011;39837;47.630;18.822;2022-10-17T00:04:32;5.95;;;4.50;;
53927;SDS011;39837;47.630;18.822;2022-10-17T00:07:16;6.78;;;4.47;;
53927;SDS011;39837;47.630;18.822;2022-10-17T00:10:00;10.38;;;5.68;;
53927;SDS011;39837;47.630;18.822;2022-10-17T00:12:44;6.30;;;4.88;;
53927;SDS011;39837;47.630;18.822;2022-10-17T00:15:28;7.70;;;5.10;;
53927;SDS011;39837;47.630;18.822;2022-10-17T00:18:12;7.32;;;5.72;;
53927;SDS011;39837;47.630;18.822;2022-10-17T00:20:56;8.30;;;5.50;;
53927;SDS011;39837;47.630;18.822;2022-10-17T00:23:40;7.60;;;4.80;;
53927;SDS011;39837;47.630;18.822;2022-10-17T00:26:23;5.20;;;4.70;;
53927;SDS011;39837;47.630;18.822;2022-10-17T00:29:07;9.38;;;6.03;;
53927;SDS011;39837;47.630;18.822;2022-10-17T00:31:55;5.03;;;4.63;;
53927;SDS011;39837;47.630;18.822;2022-10-17T00:34:40;6.63;;;5.43;;
53927;SDS011;39837;47.630;18.822;2022-10-17T00:37:24;12.02;;;4.95;;
53927;SDS011;39837;47.630;18.822;2022-10-17T00:40:09;11.30;;;5.47;;
53927;SDS011;39837;47.630;18.822;2022-10-17T00:42:53;9.25;;;5.28;;
53927;SDS011;39837;47.630;18.822;2022-10-17T00:45:37;6.55;;;5.28;;
53927;SDS011;39837;47.630;18.822;2022-10-17T00:48:21;7.47;;;6.45;;
53927;SDS011;39837;47.630;18.822;2022-10-17T00:51:07;6.00;;;5.40;;
53927;SDS011;39837;47.630;18.822;2022-10-17T00:53:51;7.22;;;5.70;;
53927;SDS011;39837;47.630;18.822;2022-10-17T00:56:36;8.20;;;5.85;;
53927;SDS011;39837;47.630;18.822;2022-10-17T00:59:20;5.60;;;5.10;;
53927;SDS011;39837;47.630;18.822;2022-10-17T01:02:12;7.60;;;6.38;;
53927;SDS011;39837;47.630;18.822;2022-10-17T01:04:59;9.68;;;6.93;;
53927;SDS011;39837;47.630;18.822;2022-10-17T01:07:44;8.60;;;5.95;;
53927;SDS011;39837;47.630;18.822;2022-10-17T01:10:30;6.63;;;5.47;;
53927;SDS011;39837;47.630;18.822;2022-10-17T01:13:20;6.50;;;5.63;;
53927;SDS011;39837;47.630;18.822;2022-10-17T01:23:23;8.15;;;6.47;;
53927;SDS011;39837;47.630;18.822;2022-10-17T01:32:07;9.10;;;5.55;;
53927;SDS011;39837;47.630;18.822;2022-10-17T01:34:59;7.57;;;6.20;;
53927;SDS011;39837;47.630;18.822;2022-10-17T01:37:50;7.15;;;5.32;;
53927;SDS011;39837;47.630;18.822;2022-10-17T01:40:51;8.65;;;6.25;;
53927;SDS011;39837;47.630;18.822;2022-10-17T01:43:46;9.73;;;6.10;;
53927;SDS011;39837;47.630;18.822;2022-10-17T01:46:43;13.43;;;7.25;;
53927;SDS011;39837;47.630;18.822;2022-10-17T01:49:32;7.75;;;5.82;;
53927;SDS011;39837;47.630;18.822;2022-10-17T01:52:24;9.73;;;6.65;;
53927;SDS011;39837;47.630;18.822;2022-10-17T01:55:11;13.88;;;7.55;;
53927;SDS011;39837;47.630;18.822;2022-10-17T01:58:00;12.48;;;8.23;;
53927;SDS011;39837;47.630;18.822;2022-10-17T02:01:05;10.90;;;7.80;;
53927;SDS011;39837;47.630;18.822;2022-10-17T02:03:50;11.95;;;7.03;;
53927;SDS011;39837;47.630;18.822;2022-10-17T02:06:35;8.82;;;6.57;;
53927;SDS011;39837;47.630;18.822;2022-10-17T02:09:23;8.30;;;6.50;;
53927;SDS011;39837;47.630;18.822;2022-10-17T02:15:20;9.57;;;6.85;;
53927;SDS011;39837;47.630;18.822;2022-10-17T02:21:23;9.43;;;7.90;;
53927;SDS011;39837;47.630;18.822;2022-10-17T02:24:20;9.00;;;6.72;;
53927;SDS011;39837;47.630;18.822;2022-10-17T02:30:41;11.77;;;7.55;;
53927;SDS011;39837;47.630;18.822;2022-10-17T02:33:27;9.27;;;6.45;;
53927;SDS011;39837;47.630;18.822;2022-10-17T02:36:16;9.02;;;6.50;;
53927;SDS011;39837;47.630;18.822;2022-10-17T02:39:11;8.85;;;7.18;;
53927;SDS011;39837;47.630;18.822;2022-10-17T02:41:56;11.82;;;6.75;;
53927;SDS011;39837;47.630;18.822;2022-10-17T02:44:44;12.55;;;7.20;;
53927;SDS011;39837;47.630;18.822;2022-10-17T02:50:33;14.35;;;8.65;;
53927;SDS011;39837;47.630;18.822;2022-10-17T02:53:47;16.45;;;8.52;;
53927;SDS011;39837;47.630;18.822;2022-10-17T02:56:40;10.15;;;7.00;;
53927;SDS011;39837;47.630;18.822;2022-10-17T02:59:27;7.40;;;6.55;;
53927;SDS011;39837;47.630;18.822;2022-10-17T03:02:12;7.88;;;7.07;;
53927;SDS011;39837;47.630;18.822;2022-10-17T03:04:56;10.10;;;6.68;;
53927;SDS011;39837;47.630;18.822;2022-10-17T03:07:40;14.55;;;7.70;;
53927;SDS011;39837;47.630;18.822;2022-10-17T03:10:24;14.30;;;6.43;;
53927;SDS011;39837;47.630;18.822;2022-10-17T03:13:08;8.10;;;6.93;;
53927;SDS011;39837;47.630;18.822;2022-10-17T03:15:51;11.43;;;7.32;;
53927;SDS011;39837;47.630;18.822;2022-10-17T03:18:35;9.65;;;7.43;;
53927;SDS011;39837;47.630;18.822;2022-10-17T03:21:19;10.70;;;8.20;;
53927;SDS011;39837;47.630;18.822;2022-10-17T03:24:03;11.95;;;7.95;;
53927;SDS011;39837;47.630;18.822;2022-10-17T03:26:48;10.73;;;6.13;;
53927;SDS011;39837;47.630;18.822;2022-10-17T03:29:31;12.13;;;7.55;;
53927;SDS011;39837;47.630;18.822;2022-10-17T03:32:15;9.13;;;6.50;;
53927;SDS011;39837;47.630;18.822;2022-10-17T03:34:59;8.77;;;7.22;;
53927;SDS011;39837;47.630;18.822;2022-10-17T03:37:43;10.32;;;6.43;;
53927;SDS011;39837;47.630;18.822;2022-10-17T03:40:27;9.85;;;6.88;;
53927;SDS011;39837;47.630;18.822;2022-10-17T03:43:11;11.48;;;7.70;;
53927;SDS011;39837;47.630;18.822;2022-10-17T03:45:56;18.90;;;7.72;;
53927;SDS011;39837;47.630;18.822;2022-10-17T03:48:41;11.07;;;7.15;;
53927;SDS011;39837;47.630;18.822;2022-10-17T03:51:25;9.10;;;6.95;;
53927;SDS011;39837;47.630;18.822;2022-10-17T03:54:08;13.25;;;7.88;;
53927;SDS011;39837;47.630;18.822;2022-10-17T03:56:52;12.10;;;7.85;;
53927;SDS011;39837;47.630;18.822;2022-10-17T03:59:37;12.15;;;7.90;;
53927;SDS011;39837;47.630;18.822;2022-10-17T04:02:21;11.85;;;7.32;;
53927;SDS011;39837;47.630;18.822;2022-10-17T04:05:05;13.25;;;8.10;;
53927;SDS011;39837;47.630;18.822;2022-10-17T04:07:49;14.88;;;7.47;;
53927;SDS011;39837;47.630;18.822;2022-10-17T04:10:33;12.38;;;7.28;;
53927;SDS011;39837;47.630;18.822;2022-10-17T04:13:18;11.27;;;6.90;;
53927;SDS011;39837;47.630;18.822;2022-10-17T04:16:04;13.23;;;8.23;;
53927;SDS011;39837;47.630;18.822;2022-10-17T04:18:56;14.15;;;8.63;;
53927;SDS011;39837;47.630;18.822;2022-10-17T04:21:41;9.77;;;7.47;;
53927;SDS011;39837;47.630;18.822;2022-10-17T04:24:25;13.95;;;9.23;;
53927;SDS011;39837;47.630;18.822;2022-10-17T04:27:09;10.60;;;7.68;;
53927;SDS011;39837;47.630;18.822;2022-10-17T04:29:53;8.13;;;6.70;;
53927;SDS011;39837;47.630;18.822;2022-10-17T04:32:37;12.93;;;6.93;;
53927;SDS011;39837;47.630;18.822;2022-10-17T04:35:22;10.35;;;7.32;;
53927;SDS011;39837;47.630;18.822;2022-10-17T04:38:06;17.70;;;8.05;;
53927;SDS011;39837;47.630;18.822;2022-10-17T04:40:50;22.63;;;8.85;;
53927;SDS011;39837;47.630;18.822;2022-10-17T04:43:35;12.68;;;8.05;;
53927;SDS011;39837;47.630;18.822;2022-10-17T04:49:04;11.93;;;7.63;;
53927;SDS011;39837;47.630;18.822;2022-10-17T04:51:48;12.82;;;7.55;;
53927;SDS011;39837;47.630;18.822;2022-10-17T04:54:32;10.13;;;7.35;;
53927;SDS011;39837;47.630;18.822;2022-10-17T04:57:17;13.32;;;7.45;;
53927;SDS011;39837;47.630;18.822;2022-10-17T05:00:02;12.32;;;7.45;;
53927;SDS011;39837;47.630;18.822;2022-10-17T05:02:47;8.65;;;7.20;;
53927;SDS011;39837;47.630;18.822;2022-10-17T05:05:31;10.35;;;7.70;;
53927;SDS011;39837;47.630;18.822;2022-10-17T05:08:14;7.20;;;6.47;;
53927;SDS011;39837;47.630;18.822;2022-10-17T05:10:59;18.83;;;7.10;;
53927;SDS011;39837;47.630;18.822;2022-10-17T05:13:44;7.75;;;6.35;;
53927;SDS011;39837;47.630;18.822;2022-10-17T05:16:32;9.70;;;6.53;;
53927;SDS011;39837;47.630;18.822;2022-10-17T05:19:16;9.00;;;6.63;;
53927;SDS011;39837;47.630;18.822;2022-10-17T05:22:05;10.40;;;8.15;;
53927;SDS011;39837;47.630;18.822;2022-10-17T05:24:49;12.63;;;7.80;;
53927;SDS011;39837;47.630;18.822;2022-10-17T05:27:33;14.40;;;7.40;;
53927;SDS011;39837;47.630;18.822;2022-10-17T05:30:17;9.45;;;7.28;;
53927;SDS011;39837;47.630;18.822;2022-10-17T05:33:01;12.40;;;6.63;;
53927;SDS011;39837;47.630;18.822;2022-10-17T05:35:45;8.63;;;7.32;;
53927;SDS011;39837;47.630;18.822;2022-10-17T05:38:29;12.10;;;7.00;;
53927;SDS011;39837;47.630;18.822;2022-10-17T05:41:13;11.57;;;7.43;;
53927;SDS011;39837;47.630;18.822;2022-10-17T05:43:57;9.93;;;7.63;;
53927;SDS011;39837;47.630;18.822;2022-10-17T05:46:41;11.27;;;7.95;;
53927;SDS011;39837;47.630;18.822;2022-10-17T05:49:26;9.75;;;6.38;;
53927;SDS011;39837;47.630;18.822;2022-10-17T05:52:10;13.85;;;7.20;;
53927;SDS011;39837;47.630;18.822;2022-10-17T05:54:54;9.75;;;7.60;;
53927;SDS011;39837;47.630;18.822;2022-10-17T05:57:38;9.70;;;6.13;;
53927;SDS011;39837;47.630;18.822;2022-10-17T06:00:22;11.57;;;6.63;;
53927;SDS011;39837;47.630;18.822;2022-10-17T06:03:07;12.35;;;6.75;;
53927;SDS011;39837;47.630;18.822;2022-10-17T06:05:53;16.27;;;7.53;;
53927;SDS011;39837;47.630;18.822;2022-10-17T06:08:37;12.38;;;8.27;;
53927;SDS011;39837;47.630;18.822;2022-10-17T06:11:22;7.30;;;6.38;;
53927;SDS011;39837;47.630;18.822;2022-10-17T06:14:06;11.65;;;7.45;;
53927;SDS011;39837;47.630;18.822;2022-10-17T06:16:50;8.00;;;6.32;;
53927;SDS011;39837;47.630;18.822;2022-10-17T06:19:34;9.52;;;6.38;;
53927;SDS011;39837;47.630;18.822;2022-10-17T06:22:19;8.23;;;6.25;;
53927;SDS011;39837;47.630;18.822;2022-10-17T06:25:03;7.45;;;6.57;;
53927;SDS011;39837;47.630;18.822;2022-10-17T06:27:47;10.38;;;8.60;;
53927;SDS011;39837;47.630;18.822;2022-10-17T06:30:31;7.95;;;6.53;;
53927;SDS011;39837;47.630;18.822;2022-10-17T06:33:15;7.68;;;6.35;;
53927;SDS011;39837;47.630;18.822;2022-10-17T06:36:00;8.45;;;6.47;;
53927;SDS011;39837;47.630;18.822;2022-10-17T06:38:44;8.43;;;6.43;;
53927;SDS011;39837;47.630;18.822;2022-10-17T06:41:28;15.88;;;7.28;;
53927;SDS011;39837;47.630;18.822;2022-10-17T06:44:13;8.07;;;5.45;;
53927;SDS011;39837;47.630;18.822;2022-10-17T06:46:57;10.63;;;6.25;;
53927;SDS011;39837;47.630;18.822;2022-10-17T06:49:41;8.73;;;5.90;;
53927;SDS011;39837;47.630;18.822;2022-10-17T06:52:26;10.70;;;6.40;;
53927;SDS011;39837;47.630;18.822;2022-10-17T06:55:10;16.02;;;5.75;;
53927;SDS011;39837;47.630;18.822;2022-10-17T06:57:54;9.80;;;6.15;;
53927;SDS011;39837;47.630;18.822;2022-10-17T07:00:38;6.90;;;6.03;;
53927;SDS011;39837;47.630;18.822;2022-10-17T07:03:22;24.55;;;7.35;;
53927;SDS011;39837;47.630;18.822;2022-10-17T07:06:06;10.75;;;7.55;;
53927;SDS011;39837;47.630;18.822;2022-10-17T07:08:50;7.78;;;5.45;;
53927;SDS011;39837;47.630;18.822;2022-10-17T07:11:35;12.07;;;5.90;;
53927;SDS011;39837;47.630;18.822;2022-10-17T07:14:20;8.30;;;6.05;;
53927;SDS011;39837;47.630;18.822;2022-10-17T07:17:04;7.60;;;5.35;;
53927;SDS011;39837;47.630;18.822;2022-10-17T07:19:48;10.43;;;5.80;;
53927;SDS011;39837;47.630;18.822;2022-10-17T07:22:32;10.05;;;6.15;;
53927;SDS011;39837;47.630;18.822;2022-10-17T07:25:16;10.50;;;5.78;;
53927;SDS011;39837;47.630;18.822;2022-10-17T07:28:00;7.53;;;4.88;;
53927;SDS011;39837;47.630;18.822;2022-10-17T07:30:44;10.65;;;4.82;;
53927;SDS011;39837;47.630;18.822;2022-10-17T07:33:28;5.28;;;4.78;;
53927;SDS011;39837;47.630;18.822;2022-10-17T07:36:12;7.70;;;5.03;;
53927;SDS011;39837;47.630;18.822;2022-10-17T07:38:57;10.10;;;5.15;;
53927;SDS011;39837;47.630;18.822;2022-10-17T07:41:41;6.63;;;5.70;;
53927;SDS011;39837;47.630;18.822;2022-10-17T07:44:25;9.55;;;5.78;;
53927;SDS011;39837;47.630;18.822;2022-10-17T07:47:09;6.57;;;5.32;;
53927;SDS011;39837;47.630;18.822;2022-10-17T07:49:53;14.73;;;5.38;;
53927;SDS011;39837;47.630;18.822;2022-10-17T07:52:37;13.30;;;5.90;;
53927;SDS011;39837;47.630;18.822;2022-10-17T07:55:22;11.68;;;5.30;;
53927;SDS011;39837;47.630;18.822;2022-10-17T07:58:06;9.05;;;5.82;;
53927;SDS011;39837;47.630;18.822;2022-10-17T08:00:51;6.50;;;5.30;;
53927;SDS011;39837;47.630;18.822;2022-10-17T08:03:35;6.40;;;5.35;;
53927;SDS011;39837;47.630;18.822;2022-10-17T08:06:19;5.68;;;4.50;;
53927;SDS011;39837;47.630;18.822;2022-10-17T08:09:03;5.70;;;5.18;;
53927;SDS011;39837;47.630;18.822;2022-10-17T08:11:48;9.75;;;5.45;;
53927;SDS011;39837;47.630;18.822;2022-10-17T08:14:31;6.70;;;4.90;;
53927;SDS011;39837;47.630;18.822;2022-10-17T08:17:16;7.10;;;4.35;;
53927;SDS011;39837;47.630;18.822;2022-10-17T08:19:59;5.80;;;4.18;;
53927;SDS011;39837;47.630;18.822;2022-10-17T08:22:49;9.38;;;4.85;;
53927;SDS011;39837;47.630;18.822;2022-10-17T08:25:36;4.85;;;4.35;;
53927;SDS011;39837;47.630;18.822;2022-10-17T08:28:21;5.18;;;4.47;;
53927;SDS011;39837;47.630;18.822;2022-10-17T08:31:06;11.25;;;3.88;;
53927;SDS011;39837;47.630;18.822;2022-10-17T08:33:52;5.50;;;5.00;;
53927;SDS011;39837;47.630;18.822;2022-10-17T08:36:36;6.47;;;3.80;;
53927;SDS011;39837;47.630;18.822;2022-10-17T08:39:20;7.25;;;4.43;;
53927;SDS011;39837;47.630;18.822;2022-10-17T08:42:10;6.25;;;4.20;;
53927;SDS011;39837;47.630;18.822;2022-10-17T08:45:20;5.35;;;4.43;;
53927;SDS011;39837;47.630;18.822;2022-10-17T08:48:16;4.93;;;4.32;;
53927;SDS011;39837;47.630;18.822;2022-10-17T08:51:05;4.32;;;3.92;;
53927;SDS011;39837;47.630;18.822;2022-10-17T08:54:11;4.88;;;4.43;;
53927;SDS011;39837;47.630;18.822;2022-10-17T08:56:58;3.63;;;3.33;;
53927;SDS011;39837;47.630;18.822;2022-10-17T08:59:42;7.45;;;3.67;;
53927;SDS011;39837;47.630;18.822;2022-10-17T09:05:26;8.60;;;4.35;;
53927;SDS011;39837;47.630;18.822;2022-10-17T09:08:18;15.07;;;3.88;;
53927;SDS011;39837;47.630;18.822;2022-10-17T09:11:18;5.78;;;3.45;;
53927;SDS011;39837;47.630;18.822;2022-10-17T09:25:53;7.13;;;4.20;;
53927;SDS011;39837;47.630;18.822;2022-10-17T09:28:39;5.63;;;3.00;;
53927;SDS011;39837;47.630;18.822;2022-10-17T09:31:25;3.33;;;3.00;;
53927;SDS011;39837;47.630;18.822;2022-10-17T09:34:12;3.05;;;2.85;;
53927;SDS011;39837;47.630;18.822;2022-10-17T09:36:57;4.50;;;2.88;;
53927;SDS011;39837;47.630;18.822;2022-10-17T09:39:42;14.50;;;3.65;;
53927;SDS011;39837;47.630;18.822;2022-10-17T09:42:27;5.60;;;3.00;;
53927;SDS011;39837;47.630;18.822;2022-10-17T09:45:21;2.90;;;2.70;;
53927;SDS011;39837;47.630;18.822;2022-10-17T09:51:01;2.70;;;2.53;;
53927;SDS011;39837;47.630;18.822;2022-10-17T09:53:47;6.88;;;3.72;;
53927;SDS011;39837;47.630;18.822;2022-10-17T09:56:55;2.95;;;2.70;;
53927;SDS011;39837;47.630;18.822;2022-10-17T09:59:46;3.33;;;2.60;;
53927;SDS011;39837;47.630;18.822;2022-10-17T10:02:41;3.78;;;3.47;;
53927;SDS011;39837;47.630;18.822;2022-10-17T10:05:25;13.63;;;3.30;;
53927;SDS011;39837;47.630;18.822;2022-10-17T10:10:59;8.48;;;3.22;;
53927;SDS011;39837;47.630;18.822;2022-10-17T10:13:52;3.22;;;2.92;;
53927;SDS011;39837;47.630;18.822;2022-10-17T10:16:40;2.38;;;2.28;;
53927;SDS011;39837;47.630;18.822;2022-10-17T10:19:29;3.30;;;2.55;;
53927;SDS011;39837;47.630;18.822;2022-10-17T10:22:21;4.05;;;3.10;;
53927;SDS011;39837;47.630;18.822;2022-10-17T10:25:14;4.53;;;3.33;;
53927;SDS011;39837;47.630;18.822;2022-10-17T10:27:59;3.70;;;2.88;;
53927;SDS011;39837;47.630;18.822;2022-10-17T10:30:48;4.43;;;3.20;;
53927;SDS011;39837;47.630;18.822;2022-10-17T10:33:34;2.13;;;2.03;;
53927;SDS011;39837;47.630;18.822;2022-10-17T10:36:19;5.05;;;2.95;;
53927;SDS011;39837;47.630;18.822;2022-10-17T10:39:06;4.05;;;2.78;;
53927;SDS011;39837;47.630;18.822;2022-10-17T10:42:00;3.45;;;2.80;;
53927;SDS011;39837;47.630;18.822;2022-10-17T10:44:45;3.83;;;3.45;;
53927;SDS011;39837;47.630;18.822;2022-10-17T10:47:30;11.70;;;5.10;;
53927;SDS011;39837;47.630;18.822;2022-10-17T10:56:36;8.82;;;2.47;;
53927;SDS011;39837;47.630;18.822;2022-10-17T10:59:38;2.28;;;2.08;;
53927;SDS011;39837;47.630;18.822;2022-10-17T11:03:27;1.65;;;1.55;;
53927;SDS011;39837;47.630;18.822;2022-10-17T11:06:39;1.48;;;1.38;;
53927;SDS011;39837;47.630;18.822;2022-10-17T11:18:12;5.00;;;1.90;;
53927;SDS011;39837;47.630;18.822;2022-10-17T11:21:09;2.42;;;2.22;;
53927;SDS011;39837;47.630;18.822;2022-10-17T11:24:06;2.08;;;1.98;;
53927;SDS011;39837;47.630;18.822;2022-10-17T11:27:05;5.20;;;2.28;;
53927;SDS011;39837;47.630;18.822;2022-10-17T11:29:50;2.00;;;1.90;;
53927;SDS011;39837;47.630;18.822;2022-10-17T11:32:45;2.28;;;2.08;;
53927;SDS011;39837;47.630;18.822;2022-10-17T11:35:36;1.95;;;1.80;;
53927;SDS011;39837;47.630;18.822;2022-10-17T11:47:27;1.60;;;1.60;;
53927;SDS011;39837;47.630;18.822;2022-10-17T11:50:38;2.13;;;2.00;;
53927;SDS011;39837;47.630;18.822;2022-10-17T11:53:27;3.00;;;2.13;;
53927;SDS011;39837;47.630;18.822;2022-10-17T11:56:17;1.90;;;1.80;;
53927;SDS011;39837;47.630;18.822;2022-10-17T12:01:54;1.70;;;1.55;;
53927;SDS011;39837;47.630;18.822;2022-10-17T12:21:52;1.73;;;1.63;;
53927;SDS011;39837;47.630;18.822;2022-10-17T12:24:41;4.63;;;2.03;;
53927;SDS011;39837;47.630;18.822;2022-10-17T12:27:39;5.47;;;1.90;;
53927;SDS011;39837;47.630;18.822;2022-10-17T12:30:26;1.75;;;1.63;;
53927;SDS011;39837;47.630;18.822;2022-10-17T12:33:15;2.10;;;1.90;;
53927;SDS011;39837;47.630;18.822;2022-10-17T12:42:27;1.70;;;1.38;;
53927;SDS011;39837;47.630;18.822;2022-10-17T12:51:21;8.15;;;2.20;;
53927;SDS011;39837;47.630;18.822;2022-10-17T12:54:09;2.58;;;1.70;;
53927;SDS011;39837;47.630;18.822;2022-10-17T12:56:55;7.68;;;1.98;;
53927;SDS011;39837;47.630;18.822;2022-10-17T12:59:42;2.20;;;1.70;;
53927;SDS011;39837;47.630;18.822;2022-10-17T13:02:27;2.67;;;1.88;;
53927;SDS011;39837;47.630;18.822;2022-10-17T13:05:23;2.73;;;2.23;;
53927;SDS011;39837;47.630;18.822;2022-10-17T13:08:14;8.15;;;3.38;;
53927;SDS011;39837;47.630;18.822;2022-10-17T13:11:03;4.72;;;2.38;;
53927;SDS011;39837;47.630;18.822;2022-10-17T13:13:48;5.00;;;2.33;;
53927;SDS011;39837;47.630;18.822;2022-10-17T13:17:23;4.32;;;2.45;;
53927;SDS011;39837;47.630;18.822;2022-10-17T13:19:46;2.28;;;2.17;;
53927;SDS011;39837;47.630;18.822;2022-10-17T13:22:31;2.15;;;1.90;;
53927;SDS011;39837;47.630;18.822;2022-10-17T13:25:16;5.00;;;1.87;;
53927;SDS011;39837;47.630;18.822;2022-10-17T13:28:03;2.10;;;1.80;;
53927;SDS011;39837;47.630;18.822;2022-10-17T13:30:49;3.90;;;2.63;;
53927;SDS011;39837;47.630;18.822;2022-10-17T13:33:34;1.60;;;1.52;;
53927;SDS011;39837;47.630;18.822;2022-10-17T13:36:21;2.58;;;2.08;;
53927;SDS011;39837;47.630;18.822;2022-10-17T13:39:07;4.53;;;2.28;;
53927;SDS011;39837;47.630;18.822;2022-10-17T13:41:53;5.72;;;2.38;;
53927;SDS011;39837;47.630;18.822;2022-10-17T13:44:38;3.15;;;2.38;;
53927;SDS011;39837;47.630;18.822;2022-10-17T13:47:26;3.80;;;2.40;;
53927;SDS011;39837;47.630;18.822;2022-10-17T13:50:25;2.55;;;2.35;;
53927;SDS011;39837;47.630;18.822;2022-10-17T13:56:01;2.33;;;2.13;;
53927;SDS011;39837;47.630;18.822;2022-10-17T13:58:49;9.00;;;2.67;;
53927;SDS011;39837;47.630;18.822;2022-10-17T14:01:34;2.80;;;2.60;;
53927;SDS011;39837;47.630;18.822;2022-10-17T14:04:20;11.93;;;3.10;;
53927;SDS011;39837;47.630;18.822;2022-10-17T14:07:05;7.40;;;1.98;;
53927;SDS011;39837;47.630;18.822;2022-10-17T14:10:02;2.00;;;1.80;;
53927;SDS011;39837;47.630;18.822;2022-10-17T14:12:49;2.30;;;2.10;;
53927;SDS011;39837;47.630;18.822;2022-10-17T14:15:34;1.85;;;1.75;;
53927;SDS011;39837;47.630;18.822;2022-10-17T14:18:20;8.57;;;2.50;;
53927;SDS011;39837;47.630;18.822;2022-10-17T14:21:07;2.10;;;1.90;;
53927;SDS011;39837;47.630;18.822;2022-10-17T14:23:51;4.80;;;3.03;;
53927;SDS011;39837;47.630;18.822;2022-10-17T14:26:54;7.28;;;3.45;;
53927;SDS011;39837;47.630;18.822;2022-10-17T14:29:51;4.50;;;2.13;;
53927;SDS011;39837;47.630;18.822;2022-10-17T14:32:37;4.43;;;2.63;;
53927;SDS011;39837;47.630;18.822;2022-10-17T14:35:21;4.38;;;2.53;;
53927;SDS011;39837;47.630;18.822;2022-10-17T14:38:05;2.63;;;2.42;;
53927;SDS011;39837;47.630;18.822;2022-10-17T14:40:51;2.93;;;2.43;;
53927;SDS011;39837;47.630;18.822;2022-10-17T14:43:37;3.78;;;2.35;;
53927;SDS011;39837;47.630;18.822;2022-10-17T14:46:22;3.25;;;2.33;;
53927;SDS011;39837;47.630;18.822;2022-10-17T14:49:16;9.02;;;2.50;;
53927;SDS011;39837;47.630;18.822;2022-10-17T14:57:44;4.78;;;2.50;;
53927;SDS011;39837;47.630;18.822;2022-10-17T15:00:28;2.47;;;2.13;;
53927;SDS011;39837;47.630;18.822;2022-10-17T15:03:12;7.93;;;2.45;;
53927;SDS011;39837;47.630;18.822;2022-10-17T15:05:56;2.85;;;2.20;;
53927;SDS011;39837;47.630;18.822;2022-10-17T15:08:42;4.72;;;2.63;;
53927;SDS011;39837;47.630;18.822;2022-10-17T15:11:27;2.97;;;2.70;;
53927;SDS011;39837;47.630;18.822;2022-10-17T15:14:11;2.45;;;2.25;;
53927;SDS011;39837;47.630;18.822;2022-10-17T15:16:55;3.22;;;2.42;;
53927;SDS011;39837;47.630;18.822;2022-10-17T15:19:39;13.13;;;2.67;;
53927;SDS011;39837;47.630;18.822;2022-10-17T15:22:23;3.90;;;2.55;;
53927;SDS011;39837;47.630;18.822;2022-10-17T15:25:08;3.58;;;3.28;;
53927;SDS011;39837;47.630;18.822;2022-10-17T15:27:52;2.83;;;2.60;;
53927;SDS011;39837;47.630;18.822;2022-10-17T15:30:36;2.60;;;2.40;;
53927;SDS011;39837;47.630;18.822;2022-10-17T15:33:20;3.13;;;2.40;;
53927;SDS011;39837;47.630;18.822;2022-10-17T15:36:04;2.90;;;2.67;;
53927;SDS011;39837;47.630;18.822;2022-10-17T15:38:49;3.05;;;2.78;;
53927;SDS011;39837;47.630;18.822;2022-10-17T15:44:18;3.17;;;2.90;;
53927;SDS011;39837;47.630;18.822;2022-10-17T15:47:03;3.20;;;2.97;;
53927;SDS011;39837;47.630;18.822;2022-10-17T15:49:47;8.55;;;3.33;;
53927;SDS011;39837;47.630;18.822;2022-10-17T15:52:31;3.50;;;3.15;;
53927;SDS011;39837;47.630;18.822;2022-10-17T15:55:15;3.88;;;3.45;;
53927;SDS011;39837;47.630;18.822;2022-10-17T15:57:59;4.07;;;3.00;;
53927;SDS011;39837;47.630;18.822;2022-10-17T16:00:43;3.67;;;3.20;;
53927;SDS011;39837;47.630;18.822;2022-10-17T16:03:28;3.00;;;2.80;;
53927;SDS011;39837;47.630;18.822;2022-10-17T16:06:12;3.70;;;3.35;;
53927;SDS011;39837;47.630;18.822;2022-10-17T16:08:56;3.65;;;2.88;;
53927;SDS011;39837;47.630;18.822;2022-10-17T16:11:41;3.60;;;3.28;;
53927;SDS011;39837;47.630;18.822;2022-10-17T16:14:25;4.60;;;3.42;;
53927;SDS011;39837;47.630;18.822;2022-10-17T16:17:13;5.00;;;3.92;;
53927;SDS011;39837;47.630;18.822;2022-10-17T16:19:57;3.80;;;3.42;;
53927;SDS011;39837;47.630;18.822;2022-10-17T16:22:42;7.40;;;3.65;;
53927;SDS011;39837;47.630;18.822;2022-10-17T16:25:27;3.70;;;3.35;;
53927;SDS011;39837;47.630;18.822;2022-10-17T16:28:12;4.72;;;3.33;;
53927;SDS011;39837;47.630;18.822;2022-10-17T16:30:56;3.22;;;3.03;;
53927;SDS011;39837;47.630;18.822;2022-10-17T16:33:40;3.92;;;3.45;;
53927;SDS011;39837;47.630;18.822;2022-10-17T16:36:24;3.30;;;3.00;;
53927;SDS011;39837;47.630;18.822;2022-10-17T16:39:08;3.65;;;3.35;;
53927;SDS011;39837;47.630;18.822;2022-10-17T16:41:52;4.05;;;3.58;;
53927;SDS011;39837;47.630;18.822;2022-10-17T16:44:36;3.88;;;3.33;;
53927;SDS011;39837;47.630;18.822;2022-10-17T16:47:20;4.00;;;3.47;;
53927;SDS011;39837;47.630;18.822;2022-10-17T16:50:04;4.93;;;3.75;;
53927;SDS011;39837;47.630;18.822;2022-10-17T16:52:49;4.78;;;4.10;;
53927;SDS011;39837;47.630;18.822;2022-10-17T16:55:33;5.70;;;4.07;;
53927;SDS011;39837;47.630;18.822;2022-10-17T16:58:17;3.67;;;3.38;;
53927;SDS011;39837;47.630;18.822;2022-10-17T17:01:02;3.92;;;3.63;;
53927;SDS011;39837;47.630;18.822;2022-10-17T17:03:47;14.52;;;4.32;;
53927;SDS011;39837;47.630;18.822;2022-10-17T17:06:31;3.67;;;3.20;;
53927;SDS011;39837;47.630;18.822;2022-10-17T17:09:16;3.55;;;3.25;;
53927;SDS011;39837;47.630;18.822;2022-10-17T17:12:00;6.25;;;4.65;;
53927;SDS011;39837;47.630;18.822;2022-10-17T17:14:44;9.00;;;3.97;;
53927;SDS011;39837;47.630;18.822;2022-10-17T17:17:28;5.45;;;4.60;;
53927;SDS011;39837;47.630;18.822;2022-10-17T17:20:12;16.55;;;6.50;;
53927;SDS011;39837;47.630;18.822;2022-10-17T17:22:56;5.47;;;4.97;;
53927;SDS011;39837;47.630;18.822;2022-10-17T17:25:40;4.65;;;4.25;;
53927;SDS011;39837;47.630;18.822;2022-10-17T17:28:25;7.72;;;5.20;;
53927;SDS011;39837;47.630;18.822;2022-10-17T17:31:10;5.82;;;5.20;;
53927;SDS011;39837;47.630;18.822;2022-10-17T17:34:01;11.30;;;6.85;;
53927;SDS011;39837;47.630;18.822;2022-10-17T17:36:45;7.20;;;5.45;;
53927;SDS011;39837;47.630;18.822;2022-10-17T17:39:29;5.03;;;4.22;;
53927;SDS011;39837;47.630;18.822;2022-10-17T17:42:13;5.22;;;4.47;;
53927;SDS011;39837;47.630;18.822;2022-10-17T17:44:57;6.82;;;3.65;;
53927;SDS011;39837;47.630;18.822;2022-10-17T17:47:41;6.20;;;4.07;;
53927;SDS011;39837;47.630;18.822;2022-10-17T17:50:25;7.75;;;4.05;;
53927;SDS011;39837;47.630;18.822;2022-10-17T17:53:09;9.98;;;4.10;;
53927;SDS011;39837;47.630;18.822;2022-10-17T17:58:54;6.50;;;4.35;;
53927;SDS011;39837;47.630;18.822;2022-10-17T18:01:42;6.13;;;4.70;;
53927;SDS011;39837;47.630;18.822;2022-10-17T18:04:26;9.23;;;5.78;;
53927;SDS011;39837;47.630;18.822;2022-10-17T18:07:10;13.68;;;7.32;;
53927;SDS011;39837;47.630;18.822;2022-10-17T18:09:54;7.72;;;5.72;;
53927;SDS011;39837;47.630;18.822;2022-10-17T18:12:39;9.63;;;5.53;;
53927;SDS011;39837;47.630;18.822;2022-10-17T18:15:23;6.93;;;5.18;;
53927;SDS011;39837;47.630;18.822;2022-10-17T18:18:07;9.43;;;6.72;;
53927;SDS011;39837;47.630;18.822;2022-10-17T18:20:51;6.63;;;5.75;;
53927;SDS011;39837;47.630;18.822;2022-10-17T18:23:40;8.27;;;6.45;;
53927;SDS011;39837;47.630;18.822;2022-10-17T18:26:25;6.72;;;5.45;;